ePrivacy and GPDR Cookie Consent by Cookie Consent
EmailTwitter


Observations de surface / Québec / CYUL (71627)

Régions: Québec | Canada | États-Unis | Europe | France | UK | Ailleurs
Station
Affichage
Infos & localisation pour CYUL (71627) | Aide pour décoder les METARs

Observations prises le 2021-05-18 à 16H00 UTC à MONTREAL INTL A, QB (CYUL)

Etat du ciel: quelques nuages.

Température: 21.0 Celsius

Point de rosée: 12.0 Celsius

Humidité relative: 56%

Vents: Sud-ouest à 20 km/h ou 11 noeuds.

Rafale du vent: 30 km/h ou 16 noeuds.

Pression au niveau moyen de la mer: 102.39 kilopascals.

Calage altimétrique: 102.37 kilopascals ou 30.23 pouces de mercure.

Visibilité horizontale: 30.00 milles terrestres ou 48.00 kilomètres.

Observation METAR:

CYUL 181600Z 21011G16KT 30SM FEW040 FEW064 FEW190 BKN250 21/12 A3023 RMK

CF1SC1AC1CI4 SC TR AC TR SLP239 DENSITY ALT 600FT=